sensor_id;sensor_type;location;lat;lon;timestamp;P1;durP1;ratioP1;P2;durP2;ratioP2
17253;SDS011;32542;52.832;13.816;2023-04-03T00:00:22;3.45;;;1.67;;
17253;SDS011;32542;52.832;13.816;2023-04-03T00:03:26;4.18;;;1.90;;
17253;SDS011;32542;52.832;13.816;2023-04-03T00:06:29;3.70;;;1.77;;
17253;SDS011;32542;52.832;13.816;2023-04-03T00:09:33;3.60;;;2.15;;
17253;SDS011;32542;52.832;13.816;2023-04-03T00:12:36;5.32;;;2.00;;
17253;SDS011;32542;52.832;13.816;2023-04-03T00:15:39;4.40;;;1.80;;
17253;SDS011;32542;52.832;13.816;2023-04-03T00:18:43;2.97;;;1.90;;
17253;SDS011;32542;52.832;13.816;2023-04-03T00:21:46;3.00;;;1.70;;
17253;SDS011;32542;52.832;13.816;2023-04-03T00:24:51;2.53;;;1.70;;
17253;SDS011;32542;52.832;13.816;2023-04-03T00:27:53;3.22;;;1.83;;
17253;SDS011;32542;52.832;13.816;2023-04-03T00:30:57;3.90;;;1.88;;
17253;SDS011;32542;52.832;13.816;2023-04-03T00:34:01;3.30;;;1.65;;
17253;SDS011;32542;52.832;13.816;2023-04-03T00:37:04;3.70;;;1.70;;
17253;SDS011;32542;52.832;13.816;2023-04-03T00:40:09;2.72;;;1.70;;
17253;SDS011;32542;52.832;13.816;2023-04-03T00:43:14;2.35;;;1.67;;
17253;SDS011;32542;52.832;13.816;2023-04-03T00:46:18;4.18;;;1.88;;
17253;SDS011;32542;52.832;13.816;2023-04-03T00:49:21;4.00;;;2.00;;
17253;SDS011;32542;52.832;13.816;2023-04-03T00:52:25;3.85;;;1.98;;
17253;SDS011;32542;52.832;13.816;2023-04-03T00:55:33;2.85;;;1.67;;
17253;SDS011;32542;52.832;13.816;2023-04-03T00:58:39;2.83;;;1.58;;
17253;SDS011;32542;52.832;13.816;2023-04-03T01:01:46;3.10;;;1.77;;
17253;SDS011;32542;52.832;13.816;2023-04-03T01:04:51;1.92;;;1.58;;
17253;SDS011;32542;52.832;13.816;2023-04-03T01:07:54;3.00;;;1.38;;
17253;SDS011;32542;52.832;13.816;2023-04-03T01:10:59;2.30;;;1.60;;
17253;SDS011;32542;52.832;13.816;2023-04-03T01:14:02;3.00;;;2.05;;
17253;SDS011;32542;52.832;13.816;2023-04-03T01:17:21;2.05;;;1.40;;
17253;SDS011;32542;52.832;13.816;2023-04-03T01:27:36;3.00;;;1.75;;
17253;SDS011;32542;52.832;13.816;2023-04-03T01:30:40;2.55;;;1.60;;
17253;SDS011;32542;52.832;13.816;2023-04-03T01:33:52;3.15;;;1.73;;
17253;SDS011;32542;52.832;13.816;2023-04-03T01:36:55;4.20;;;1.65;;
17253;SDS011;32542;52.832;13.816;2023-04-03T01:39:59;2.92;;;1.40;;
17253;SDS011;32542;52.832;13.816;2023-04-03T01:43:02;2.50;;;1.38;;
17253;SDS011;32542;52.832;13.816;2023-04-03T01:46:05;2.80;;;1.58;;
17253;SDS011;32542;52.832;13.816;2023-04-03T01:49:10;4.70;;;1.80;;
17253;SDS011;32542;52.832;13.816;2023-04-03T01:52:13;2.60;;;1.60;;
17253;SDS011;32542;52.832;13.816;2023-04-03T01:55:16;2.67;;;1.75;;
17253;SDS011;32542;52.832;13.816;2023-04-03T01:58:19;2.70;;;1.50;;
17253;SDS011;32542;52.832;13.816;2023-04-03T02:01:24;3.42;;;1.48;;
17253;SDS011;32542;52.832;13.816;2023-04-03T02:04:29;3.13;;;1.60;;
17253;SDS011;32542;52.832;13.816;2023-04-03T02:07:32;3.55;;;1.60;;
17253;SDS011;32542;52.832;13.816;2023-04-03T02:10:35;1.90;;;1.33;;
17253;SDS011;32542;52.832;13.816;2023-04-03T02:13:40;2.83;;;1.58;;
17253;SDS011;32542;52.832;13.816;2023-04-03T02:16:43;2.40;;;1.30;;
17253;SDS011;32542;52.832;13.816;2023-04-03T02:19:47;3.33;;;1.83;;
17253;SDS011;32542;52.832;13.816;2023-04-03T02:22:51;2.95;;;1.55;;
17253;SDS011;32542;52.832;13.816;2023-04-03T02:26:01;3.38;;;1.60;;
17253;SDS011;32542;52.832;13.816;2023-04-03T02:29:05;1.92;;;1.40;;
17253;SDS011;32542;52.832;13.816;2023-04-03T02:32:09;3.65;;;1.52;;
17253;SDS011;32542;52.832;13.816;2023-04-03T02:35:15;2.90;;;1.48;;
17253;SDS011;32542;52.832;13.816;2023-04-03T02:38:18;2.78;;;1.40;;
17253;SDS011;32542;52.832;13.816;2023-04-03T02:41:22;2.75;;;1.67;;
17253;SDS011;32542;52.832;13.816;2023-04-03T02:44:27;2.10;;;1.40;;
17253;SDS011;32542;52.832;13.816;2023-04-03T02:47:31;1.40;;;1.15;;
17253;SDS011;32542;52.832;13.816;2023-04-03T02:50:36;2.20;;;1.40;;
17253;SDS011;32542;52.832;13.816;2023-04-03T02:53:39;2.67;;;1.45;;
17253;SDS011;32542;52.832;13.816;2023-04-03T02:56:47;1.85;;;1.27;;
17253;SDS011;32542;52.832;13.816;2023-04-03T02:59:50;2.10;;;1.40;;
17253;SDS011;32542;52.832;13.816;2023-04-03T03:02:53;2.40;;;1.30;;
17253;SDS011;32542;52.832;13.816;2023-04-03T03:06:04;1.92;;;1.50;;
17253;SDS011;32542;52.832;13.816;2023-04-03T03:09:08;2.17;;;1.40;;
17253;SDS011;32542;52.832;13.816;2023-04-03T03:12:11;2.53;;;1.38;;
17253;SDS011;32542;52.832;13.816;2023-04-03T03:15:14;2.90;;;1.48;;
17253;SDS011;32542;52.832;13.816;2023-04-03T03:18:18;2.03;;;1.40;;
17253;SDS011;32542;52.832;13.816;2023-04-03T03:21:24;2.35;;;1.30;;
17253;SDS011;32542;52.832;13.816;2023-04-03T03:24:27;1.88;;;1.33;;
17253;SDS011;32542;52.832;13.816;2023-04-03T03:27:30;2.03;;;1.20;;
17253;SDS011;32542;52.832;13.816;2023-04-03T03:30:33;2.25;;;1.38;;
17253;SDS011;32542;52.832;13.816;2023-04-03T03:33:36;2.10;;;1.42;;
17253;SDS011;32542;52.832;13.816;2023-04-03T03:36:41;2.88;;;1.40;;
17253;SDS011;32542;52.832;13.816;2023-04-03T03:39:44;2.55;;;1.20;;
17253;SDS011;32542;52.832;13.816;2023-04-03T03:42:47;2.20;;;1.30;;
17253;SDS011;32542;52.832;13.816;2023-04-03T03:45:50;2.83;;;1.50;;
17253;SDS011;32542;52.832;13.816;2023-04-03T03:48:55;2.75;;;1.23;;
17253;SDS011;32542;52.832;13.816;2023-04-03T03:52:00;1.45;;;1.20;;
17253;SDS011;32542;52.832;13.816;2023-04-03T03:55:03;2.30;;;1.27;;
17253;SDS011;32542;52.832;13.816;2023-04-03T03:58:09;2.83;;;1.17;;
17253;SDS011;32542;52.832;13.816;2023-04-03T04:01:12;2.42;;;1.25;;
17253;SDS011;32542;52.832;13.816;2023-04-03T04:04:20;3.08;;;1.50;;
17253;SDS011;32542;52.832;13.816;2023-04-03T04:07:25;1.35;;;1.15;;
17253;SDS011;32542;52.832;13.816;2023-04-03T04:10:30;1.88;;;1.20;;
17253;SDS011;32542;52.832;13.816;2023-04-03T04:13:34;1.45;;;1.17;;
17253;SDS011;32542;52.832;13.816;2023-04-03T04:16:38;1.65;;;1.23;;
17253;SDS011;32542;52.832;13.816;2023-04-03T04:19:47;1.13;;;0.93;;
17253;SDS011;32542;52.832;13.816;2023-04-03T04:22:52;2.67;;;1.45;;
17253;SDS011;32542;52.832;13.816;2023-04-03T04:25:57;1.52;;;1.15;;
17253;SDS011;32542;52.832;13.816;2023-04-03T04:29:02;2.00;;;1.20;;
17253;SDS011;32542;52.832;13.816;2023-04-03T04:32:08;3.60;;;1.52;;
17253;SDS011;32542;52.832;13.816;2023-04-03T04:35:11;1.65;;;1.25;;
17253;SDS011;32542;52.832;13.816;2023-04-03T04:38:21;1.73;;;1.30;;
17253;SDS011;32542;52.832;13.816;2023-04-03T04:41:26;1.35;;;1.10;;
17253;SDS011;32542;52.832;13.816;2023-04-03T04:44:29;2.25;;;1.20;;
17253;SDS011;32542;52.832;13.816;2023-04-03T04:47:33;1.48;;;1.25;;
17253;SDS011;32542;52.832;13.816;2023-04-03T04:50:36;1.10;;;1.00;;
17253;SDS011;32542;52.832;13.816;2023-04-03T04:53:40;1.75;;;1.10;;
17253;SDS011;32542;52.832;13.816;2023-04-03T04:56:47;2.13;;;1.38;;
17253;SDS011;32542;52.832;13.816;2023-04-03T04:59:50;1.33;;;1.10;;
17253;SDS011;32542;52.832;13.816;2023-04-03T05:02:54;3.20;;;1.55;;
17253;SDS011;32542;52.832;13.816;2023-04-03T05:05:58;1.25;;;0.98;;
17253;SDS011;32542;52.832;13.816;2023-04-03T05:09:05;1.83;;;1.20;;
17253;SDS011;32542;52.832;13.816;2023-04-03T05:12:08;1.33;;;1.00;;
17253;SDS011;32542;52.832;13.816;2023-04-03T05:15:18;2.78;;;1.50;;
17253;SDS011;32542;52.832;13.816;2023-04-03T05:18:21;1.92;;;1.10;;
17253;SDS011;32542;52.832;13.816;2023-04-03T05:21:26;1.48;;;1.20;;
17253;SDS011;32542;52.832;13.816;2023-04-03T05:24:38;1.40;;;1.00;;
17253;SDS011;32542;52.832;13.816;2023-04-03T05:27:42;1.60;;;1.20;;
17253;SDS011;32542;52.832;13.816;2023-04-03T05:30:47;1.95;;;1.08;;
17253;SDS011;32542;52.832;13.816;2023-04-03T05:33:56;2.10;;;1.20;;
17253;SDS011;32542;52.832;13.816;2023-04-03T05:37:00;2.70;;;1.02;;
17253;SDS011;32542;52.832;13.816;2023-04-03T05:40:07;1.48;;;1.08;;
17253;SDS011;32542;52.832;13.816;2023-04-03T05:43:15;1.83;;;1.35;;
17253;SDS011;32542;52.832;13.816;2023-04-03T05:46:18;1.55;;;1.17;;
17253;SDS011;32542;52.832;13.816;2023-04-03T05:49:27;1.73;;;1.30;;
17253;SDS011;32542;52.832;13.816;2023-04-03T05:52:31;1.55;;;1.10;;
17253;SDS011;32542;52.832;13.816;2023-04-03T05:55:39;2.67;;;1.60;;
17253;SDS011;32542;52.832;13.816;2023-04-03T05:58:41;3.95;;;1.80;;
17253;SDS011;32542;52.832;13.816;2023-04-03T06:01:45;5.47;;;1.90;;
17253;SDS011;32542;52.832;13.816;2023-04-03T06:04:48;3.95;;;2.03;;
17253;SDS011;32542;52.832;13.816;2023-04-03T06:07:52;3.30;;;2.05;;
17253;SDS011;32542;52.832;13.816;2023-04-03T06:10:57;3.72;;;1.92;;
17253;SDS011;32542;52.832;13.816;2023-04-03T06:14:01;4.25;;;2.30;;
17253;SDS011;32542;52.832;13.816;2023-04-03T06:17:04;5.50;;;2.17;;
17253;SDS011;32542;52.832;13.816;2023-04-03T06:20:07;5.30;;;2.35;;
17253;SDS011;32542;52.832;13.816;2023-04-03T06:23:11;5.50;;;2.08;;
17253;SDS011;32542;52.832;13.816;2023-04-03T06:26:16;8.18;;;2.15;;
17253;SDS011;32542;52.832;13.816;2023-04-03T06:29:19;4.75;;;1.60;;
17253;SDS011;32542;52.832;13.816;2023-04-03T06:32:22;3.80;;;1.60;;
17253;SDS011;32542;52.832;13.816;2023-04-03T06:35:26;6.60;;;1.60;;
17253;SDS011;32542;52.832;13.816;2023-04-03T06:38:30;7.15;;;1.65;;
17253;SDS011;32542;52.832;13.816;2023-04-03T06:41:34;6.90;;;1.45;;
17253;SDS011;32542;52.832;13.816;2023-04-03T06:44:37;5.15;;;1.65;;
17253;SDS011;32542;52.832;13.816;2023-04-03T06:47:40;7.13;;;1.63;;
17253;SDS011;32542;52.832;13.816;2023-04-03T06:54:18;9.68;;;1.85;;
17253;SDS011;32542;52.832;13.816;2023-04-03T06:57:22;13.95;;;2.13;;
17253;SDS011;32542;52.832;13.816;2023-04-03T07:00:25;4.45;;;1.40;;
17253;SDS011;32542;52.832;13.816;2023-04-03T07:03:29;8.25;;;2.03;;
17253;SDS011;32542;52.832;13.816;2023-04-03T07:06:32;9.68;;;1.70;;
17253;SDS011;32542;52.832;13.816;2023-04-03T07:09:35;5.97;;;1.90;;
17253;SDS011;32542;52.832;13.816;2023-04-03T07:12:39;4.55;;;1.45;;
17253;SDS011;32542;52.832;13.816;2023-04-03T07:15:42;6.95;;;1.98;;
17253;SDS011;32542;52.832;13.816;2023-04-03T07:18:45;4.88;;;1.63;;
17253;SDS011;32542;52.832;13.816;2023-04-03T07:21:48;3.38;;;1.35;;
17253;SDS011;32542;52.832;13.816;2023-04-03T07:24:52;4.28;;;1.52;;
17253;SDS011;32542;52.832;13.816;2023-04-03T07:27:56;8.10;;;1.67;;
17253;SDS011;32542;52.832;13.816;2023-04-03T07:30:59;4.82;;;1.33;;
17253;SDS011;32542;52.832;13.816;2023-04-03T07:34:04;4.93;;;1.70;;
17253;SDS011;32542;52.832;13.816;2023-04-03T07:37:07;10.77;;;1.85;;
17253;SDS011;32542;52.832;13.816;2023-04-03T07:40:10;4.07;;;1.55;;
17253;SDS011;32542;52.832;13.816;2023-04-03T07:43:14;6.45;;;1.38;;
17253;SDS011;32542;52.832;13.816;2023-04-03T07:46:18;3.20;;;1.50;;
17253;SDS011;32542;52.832;13.816;2023-04-03T07:49:22;3.65;;;1.23;;
17253;SDS011;32542;52.832;13.816;2023-04-03T07:52:25;4.28;;;1.30;;
17253;SDS011;32542;52.832;13.816;2023-04-03T07:55:29;6.57;;;1.42;;
17253;SDS011;32542;52.832;13.816;2023-04-03T07:58:37;3.42;;;1.40;;
17253;SDS011;32542;52.832;13.816;2023-04-03T08:01:39;4.75;;;1.70;;
17253;SDS011;32542;52.832;13.816;2023-04-03T08:04:42;4.20;;;1.40;;
17253;SDS011;32542;52.832;13.816;2023-04-03T08:07:46;9.57;;;1.42;;
17253;SDS011;32542;52.832;13.816;2023-04-03T08:10:50;4.10;;;1.38;;
17253;SDS011;32542;52.832;13.816;2023-04-03T08:13:55;5.57;;;1.40;;
17253;SDS011;32542;52.832;13.816;2023-04-03T08:16:58;3.00;;;1.60;;
17253;SDS011;32542;52.832;13.816;2023-04-03T08:20:02;3.55;;;1.42;;
17253;SDS011;32542;52.832;13.816;2023-04-03T08:23:06;2.95;;;1.52;;
17253;SDS011;32542;52.832;13.816;2023-04-03T08:26:10;5.63;;;1.50;;
17253;SDS011;32542;52.832;13.816;2023-04-03T08:29:15;5.18;;;1.50;;
17253;SDS011;32542;52.832;13.816;2023-04-03T08:32:18;2.95;;;1.48;;
17253;SDS011;32542;52.832;13.816;2023-04-03T08:35:22;3.17;;;1.10;;
17253;SDS011;32542;52.832;13.816;2023-04-03T08:38:25;2.88;;;1.23;;
17253;SDS011;32542;52.832;13.816;2023-04-03T08:41:29;4.10;;;1.38;;
17253;SDS011;32542;52.832;13.816;2023-04-03T08:44:38;7.93;;;1.60;;
17253;SDS011;32542;52.832;13.816;2023-04-03T08:47:49;5.43;;;1.40;;
17253;SDS011;32542;52.832;13.816;2023-04-03T08:50:58;12.82;;;1.77;;
17253;SDS011;32542;52.832;13.816;2023-04-03T08:54:04;3.35;;;1.50;;
17253;SDS011;32542;52.832;13.816;2023-04-03T08:57:15;8.50;;;1.45;;
17253;SDS011;32542;52.832;13.816;2023-04-03T09:00:20;3.72;;;1.80;;
17253;SDS011;32542;52.832;13.816;2023-04-03T09:03:28;2.85;;;1.50;;
17253;SDS011;32542;52.832;13.816;2023-04-03T09:06:32;5.45;;;1.38;;
17253;SDS011;32542;52.832;13.816;2023-04-03T09:09:36;5.55;;;1.83;;
17253;SDS011;32542;52.832;13.816;2023-04-03T09:12:42;6.72;;;1.30;;
17253;SDS011;32542;52.832;13.816;2023-04-03T09:15:53;3.10;;;1.60;;
17253;SDS011;32542;52.832;13.816;2023-04-03T09:19:02;5.70;;;1.50;;
17253;SDS011;32542;52.832;13.816;2023-04-03T09:22:13;2.15;;;1.17;;
17253;SDS011;32542;52.832;13.816;2023-04-03T09:25:20;3.10;;;1.20;;
17253;SDS011;32542;52.832;13.816;2023-04-03T09:28:25;6.03;;;1.40;;
17253;SDS011;32542;52.832;13.816;2023-04-03T09:31:35;7.43;;;1.80;;
17253;SDS011;32542;52.832;13.816;2023-04-03T09:34:42;3.03;;;1.05;;
17253;SDS011;32542;52.832;13.816;2023-04-03T09:37:46;3.70;;;1.40;;
17253;SDS011;32542;52.832;13.816;2023-04-03T09:40:51;4.95;;;1.25;;
17253;SDS011;32542;52.832;13.816;2023-04-03T09:44:23;3.03;;;1.20;;
17253;SDS011;32542;52.832;13.816;2023-04-03T09:47:28;2.92;;;1.35;;
17253;SDS011;32542;52.832;13.816;2023-04-03T09:50:34;3.67;;;1.23;;
17253;SDS011;32542;52.832;13.816;2023-04-03T09:53:39;3.13;;;1.25;;
17253;SDS011;32542;52.832;13.816;2023-04-03T09:56:47;3.13;;;1.27;;
17253;SDS011;32542;52.832;13.816;2023-04-03T09:59:56;2.90;;;1.40;;
17253;SDS011;32542;52.832;13.816;2023-04-03T10:03:02;2.92;;;1.38;;
17253;SDS011;32542;52.832;13.816;2023-04-03T10:06:14;3.58;;;1.70;;
17253;SDS011;32542;52.832;13.816;2023-04-03T10:09:25;2.75;;;1.55;;
17253;SDS011;32542;52.832;13.816;2023-04-03T10:12:29;5.55;;;1.50;;
17253;SDS011;32542;52.832;13.816;2023-04-03T10:15:34;3.17;;;1.38;;
17253;SDS011;32542;52.832;13.816;2023-04-03T10:18:44;1.80;;;0.80;;
17253;SDS011;32542;52.832;13.816;2023-04-03T10:21:53;6.10;;;1.92;;
17253;SDS011;32542;52.832;13.816;2023-04-03T10:25:02;3.03;;;1.20;;
17253;SDS011;32542;52.832;13.816;2023-04-03T10:28:13;3.08;;;1.33;;
17253;SDS011;32542;52.832;13.816;2023-04-03T10:31:22;2.78;;;1.27;;
17253;SDS011;32542;52.832;13.816;2023-04-03T10:34:35;3.33;;;1.35;;
17253;SDS011;32542;52.832;13.816;2023-04-03T10:37:47;2.97;;;1.38;;
17253;SDS011;32542;52.832;13.816;2023-04-03T10:41:02;6.50;;;1.60;;
17253;SDS011;32542;52.832;13.816;2023-04-03T10:44:13;4.75;;;1.42;;
17253;SDS011;32542;52.832;13.816;2023-04-03T10:47:23;6.78;;;1.20;;
17253;SDS011;32542;52.832;13.816;2023-04-03T10:50:39;2.22;;;1.00;;
17253;SDS011;32542;52.832;13.816;2023-04-03T10:53:49;5.72;;;1.42;;
17253;SDS011;32542;52.832;13.816;2023-04-03T10:57:00;4.85;;;1.30;;
17253;SDS011;32542;52.832;13.816;2023-04-03T11:00:14;4.70;;;1.60;;
17253;SDS011;32542;52.832;13.816;2023-04-03T11:03:24;1.83;;;1.13;;
17253;SDS011;32542;52.832;13.816;2023-04-03T11:06:35;2.97;;;1.60;;
17253;SDS011;32542;52.832;13.816;2023-04-03T11:09:43;3.20;;;1.20;;
17253;SDS011;32542;52.832;13.816;2023-04-03T11:12:51;2.58;;;1.30;;
17253;SDS011;32542;52.832;13.816;2023-04-03T11:15:57;2.28;;;1.10;;
17253;SDS011;32542;52.832;13.816;2023-04-03T11:19:01;5.22;;;1.10;;
17253;SDS011;32542;52.832;13.816;2023-04-03T11:22:10;7.95;;;0.93;;
17253;SDS011;32542;52.832;13.816;2023-04-03T11:25:19;3.05;;;1.20;;
17253;SDS011;32542;52.832;13.816;2023-04-03T11:28:24;3.97;;;1.38;;
17253;SDS011;32542;52.832;13.816;2023-04-03T11:31:38;3.63;;;1.38;;
17253;SDS011;32542;52.832;13.816;2023-04-03T11:34:48;2.28;;;1.23;;
17253;SDS011;32542;52.832;13.816;2023-04-03T11:37:54;1.95;;;1.08;;
17253;SDS011;32542;52.832;13.816;2023-04-03T11:40:58;1.98;;;1.25;;
17253;SDS011;32542;52.832;13.816;2023-04-03T11:44:03;3.78;;;1.23;;
17253;SDS011;32542;52.832;13.816;2023-04-03T11:47:09;6.35;;;1.20;;
17253;SDS011;32542;52.832;13.816;2023-04-03T11:53:43;3.33;;;1.15;;
17253;SDS011;32542;52.832;13.816;2023-04-03T11:56:47;3.08;;;1.35;;
17253;SDS011;32542;52.832;13.816;2023-04-03T11:59:50;3.83;;;1.30;;
17253;SDS011;32542;52.832;13.816;2023-04-03T12:02:53;4.60;;;1.20;;
17253;SDS011;32542;52.832;13.816;2023-04-03T12:05:57;4.18;;;1.42;;
17253;SDS011;32542;52.832;13.816;2023-04-03T12:13:33;6.63;;;1.65;;
17253;SDS011;32542;52.832;13.816;2023-04-03T12:16:42;3.25;;;1.25;;
17253;SDS011;32542;52.832;13.816;2023-04-03T12:19:47;2.00;;;1.00;;
17253;SDS011;32542;52.832;13.816;2023-04-03T12:26:25;4.13;;;1.40;;
17253;SDS011;32542;52.832;13.816;2023-04-03T12:29:49;2.22;;;1.27;;
17253;SDS011;32542;52.832;13.816;2023-04-03T12:36:31;6.38;;;2.90;;
17253;SDS011;32542;52.832;13.816;2023-04-03T12:39:49;20.45;;;2.20;;
17253;SDS011;32542;52.832;13.816;2023-04-03T12:43:01;5.47;;;1.73;;
17253;SDS011;32542;52.832;13.816;2023-04-03T12:46:14;5.45;;;1.85;;
17253;SDS011;32542;52.832;13.816;2023-04-03T12:49:26;5.90;;;1.45;;
17253;SDS011;32542;52.832;13.816;2023-04-03T12:52:38;4.93;;;1.40;;
17253;SDS011;32542;52.832;13.816;2023-04-03T12:55:44;2.08;;;1.30;;
17253;SDS011;32542;52.832;13.816;2023-04-03T12:58:47;3.28;;;1.50;;
17253;SDS011;32542;52.832;13.816;2023-04-03T13:01:56;5.63;;;1.60;;
17253;SDS011;32542;52.832;13.816;2023-04-03T13:05:04;3.40;;;1.50;;
17253;SDS011;32542;52.832;13.816;2023-04-03T13:08:11;4.25;;;1.55;;
17253;SDS011;32542;52.832;13.816;2023-04-03T13:11:17;2.88;;;1.30;;
17253;SDS011;32542;52.832;13.816;2023-04-03T13:14:22;5.15;;;1.40;;
17253;SDS011;32542;52.832;13.816;2023-04-03T13:17:29;3.85;;;1.50;;
17253;SDS011;32542;52.832;13.816;2023-04-03T13:20:33;5.25;;;1.52;;
17253;SDS011;32542;52.832;13.816;2023-04-03T13:23:40;7.70;;;1.48;;
17253;SDS011;32542;52.832;13.816;2023-04-03T13:26:47;4.30;;;2.00;;
17253;SDS011;32542;52.832;13.816;2023-04-03T13:29:50;4.68;;;1.50;;
17253;SDS011;32542;52.832;13.816;2023-04-03T13:32:57;4.90;;;1.58;;
17253;SDS011;32542;52.832;13.816;2023-04-03T13:36:03;9.25;;;1.73;;
17253;SDS011;32542;52.832;13.816;2023-04-03T13:39:21;4.60;;;1.40;;
17253;SDS011;32542;52.832;13.816;2023-04-03T13:42:26;4.70;;;1.50;;
17253;SDS011;32542;52.832;13.816;2023-04-03T13:45:31;6.13;;;1.40;;
17253;SDS011;32542;52.832;13.816;2023-04-03T13:48:39;5.75;;;1.88;;
17253;SDS011;32542;52.832;13.816;2023-04-03T13:51:43;4.60;;;1.50;;
17253;SDS011;32542;52.832;13.816;2023-04-03T13:54:51;3.92;;;1.40;;
17253;SDS011;32542;52.832;13.816;2023-04-03T13:57:57;2.72;;;1.38;;
17253;SDS011;32542;52.832;13.816;2023-04-03T14:01:07;9.60;;;1.63;;
17253;SDS011;32542;52.832;13.816;2023-04-03T14:04:16;2.80;;;1.25;;
17253;SDS011;32542;52.832;13.816;2023-04-03T14:07:21;4.00;;;1.40;;
17253;SDS011;32542;52.832;13.816;2023-04-03T14:10:25;5.63;;;1.55;;
17253;SDS011;32542;52.832;13.816;2023-04-03T14:13:29;4.30;;;1.55;;
17253;SDS011;32542;52.832;13.816;2023-04-03T14:16:36;5.55;;;1.85;;
17253;SDS011;32542;52.832;13.816;2023-04-03T14:19:42;7.28;;;1.52;;
17253;SDS011;32542;52.832;13.816;2023-04-03T14:22:46;5.20;;;1.55;;
17253;SDS011;32542;52.832;13.816;2023-04-03T14:25:49;7.40;;;1.52;;
17253;SDS011;32542;52.832;13.816;2023-04-03T14:28:53;3.25;;;1.77;;
17253;SDS011;32542;52.832;13.816;2023-04-03T14:31:57;2.95;;;1.50;;
17253;SDS011;32542;52.832;13.816;2023-04-03T14:35:16;3.20;;;1.70;;
17253;SDS011;32542;52.832;13.816;2023-04-03T14:38:22;4.22;;;1.40;;
17253;SDS011;32542;52.832;13.816;2023-04-03T14:41:27;4.22;;;1.45;;
17253;SDS011;32542;52.832;13.816;2023-04-03T14:44:30;7.60;;;1.52;;
17253;SDS011;32542;52.832;13.816;2023-04-03T14:47:33;3.10;;;1.30;;
17253;SDS011;32542;52.832;13.816;2023-04-03T14:50:43;5.35;;;1.42;;
17253;SDS011;32542;52.832;13.816;2023-04-03T14:54:05;3.88;;;1.42;;
17253;SDS011;32542;52.832;13.816;2023-04-03T14:57:16;4.63;;;1.25;;
17253;SDS011;32542;52.832;13.816;2023-04-03T15:00:20;2.65;;;1.15;;
17253;SDS011;32542;52.832;13.816;2023-04-03T15:03:24;5.38;;;1.17;;
17253;SDS011;32542;52.832;13.816;2023-04-03T15:06:29;4.63;;;1.10;;
17253;SDS011;32542;52.832;13.816;2023-04-03T15:09:32;6.07;;;1.20;;
17253;SDS011;32542;52.832;13.816;2023-04-03T15:12:38;4.55;;;1.20;;
17253;SDS011;32542;52.832;13.816;2023-04-03T15:15:41;1.85;;;1.00;;
17253;SDS011;32542;52.832;13.816;2023-04-03T15:18:45;3.25;;;1.10;;
17253;SDS011;32542;52.832;13.816;2023-04-03T15:21:50;2.47;;;1.17;;
17253;SDS011;32542;52.832;13.816;2023-04-03T15:24:53;3.22;;;1.27;;
17253;SDS011;32542;52.832;13.816;2023-04-03T15:27:56;2.53;;;1.00;;
17253;SDS011;32542;52.832;13.816;2023-04-03T15:30:59;5.15;;;1.50;;
17253;SDS011;32542;52.832;13.816;2023-04-03T15:34:02;3.13;;;1.10;;
17253;SDS011;32542;52.832;13.816;2023-04-03T15:37:07;2.78;;;1.30;;
17253;SDS011;32542;52.832;13.816;2023-04-03T15:40:10;3.83;;;1.23;;
17253;SDS011;32542;52.832;13.816;2023-04-03T15:43:14;2.67;;;1.20;;
17253;SDS011;32542;52.832;13.816;2023-04-03T15:46:17;5.10;;;1.20;;
17253;SDS011;32542;52.832;13.816;2023-04-03T15:49:20;4.10;;;1.30;;
17253;SDS011;32542;52.832;13.816;2023-04-03T15:52:26;4.40;;;1.63;;
17253;SDS011;32542;52.832;13.816;2023-04-03T15:55:29;5.75;;;1.40;;
17253;SDS011;32542;52.832;13.816;2023-04-03T15:58:33;4.55;;;1.42;;
17253;SDS011;32542;52.832;13.816;2023-04-03T16:01:36;8.10;;;1.65;;
17253;SDS011;32542;52.832;13.816;2023-04-03T16:04:40;5.35;;;1.30;;
17253;SDS011;32542;52.832;13.816;2023-04-03T16:07:45;4.13;;;1.30;;
17253;SDS011;32542;52.832;13.816;2023-04-03T16:10:49;4.68;;;1.20;;
17253;SDS011;32542;52.832;13.816;2023-04-03T16:13:51;4.47;;;1.60;;
17253;SDS011;32542;52.832;13.816;2023-04-03T16:16:54;4.97;;;1.17;;
17253;SDS011;32542;52.832;13.816;2023-04-03T16:19:58;2.85;;;1.10;;
17253;SDS011;32542;52.832;13.816;2023-04-03T16:23:03;5.97;;;1.25;;
17253;SDS011;32542;52.832;13.816;2023-04-03T16:26:06;3.05;;;1.10;;
17253;SDS011;32542;52.832;13.816;2023-04-03T16:29:09;4.15;;;1.00;;
17253;SDS011;32542;52.832;13.816;2023-04-03T16:32:12;2.15;;;1.38;;
17253;SDS011;32542;52.832;13.816;2023-04-03T16:35:16;3.65;;;1.20;;
17253;SDS011;32542;52.832;13.816;2023-04-03T16:38:20;3.83;;;1.20;;
17253;SDS011;32542;52.832;13.816;2023-04-03T16:41:24;4.18;;;1.40;;
17253;SDS011;32542;52.832;13.816;2023-04-03T16:44:27;2.70;;;1.27;;
17253;SDS011;32542;52.832;13.816;2023-04-03T16:47:30;2.78;;;1.20;;
17253;SDS011;32542;52.832;13.816;2023-04-03T16:50:33;8.13;;;1.60;;
17253;SDS011;32542;52.832;13.816;2023-04-03T16:53:37;2.88;;;1.58;;
17253;SDS011;32542;52.832;13.816;2023-04-03T16:56:43;3.80;;;1.27;;
17253;SDS011;32542;52.832;13.816;2023-04-03T16:59:50;4.78;;;1.45;;
17253;SDS011;32542;52.832;13.816;2023-04-03T17:02:53;4.90;;;1.20;;
17253;SDS011;32542;52.832;13.816;2023-04-03T17:05:56;2.70;;;1.20;;
17253;SDS011;32542;52.832;13.816;2023-04-03T17:09:00;33.85;;;27.20;;
17253;SDS011;32542;52.832;13.816;2023-04-03T17:12:03;19.67;;;16.98;;
17253;SDS011;32542;52.832;13.816;2023-04-03T17:15:06;31.25;;;26.40;;
17253;SDS011;32542;52.832;13.816;2023-04-03T17:18:10;32.08;;;28.23;;
17253;SDS011;32542;52.832;13.816;2023-04-03T17:21:13;19.63;;;17.50;;
17253;SDS011;32542;52.832;13.816;2023-04-03T17:24:18;25.42;;;19.65;;
17253;SDS011;32542;52.832;13.816;2023-04-03T17:27:21;28.67;;;21.55;;
17253;SDS011;32542;52.832;13.816;2023-04-03T17:30:24;28.92;;;20.30;;
17253;SDS011;32542;52.832;13.816;2023-04-03T17:33:28;27.38;;;21.10;;
17253;SDS011;32542;52.832;13.816;2023-04-03T17:36:32;28.60;;;20.58;;
17253;SDS011;32542;52.832;13.816;2023-04-03T17:39:36;26.23;;;20.13;;
17253;SDS011;32542;52.832;13.816;2023-04-03T17:42:39;25.33;;;19.73;;
17253;SDS011;32542;52.832;13.816;2023-04-03T17:45:42;23.15;;;19.38;;
17253;SDS011;32542;52.832;13.816;2023-04-03T17:48:45;23.15;;;19.15;;
17253;SDS011;32542;52.832;13.816;2023-04-03T17:51:49;25.85;;;18.48;;
17253;SDS011;32542;52.832;13.816;2023-04-03T17:54:53;22.88;;;19.08;;
17253;SDS011;32542;52.832;13.816;2023-04-03T17:57:56;21.13;;;18.35;;
17253;SDS011;32542;52.832;13.816;2023-04-03T18:01:01;25.73;;;18.08;;
17253;SDS011;32542;52.832;13.816;2023-04-03T18:04:09;20.27;;;18.13;;
17253;SDS011;32542;52.832;13.816;2023-04-03T18:07:12;22.38;;;17.48;;
17253;SDS011;32542;52.832;13.816;2023-04-03T18:10:16;18.13;;;16.25;;
17253;SDS011;32542;52.832;13.816;2023-04-03T18:13:19;19.08;;;16.83;;
17253;SDS011;32542;52.832;13.816;2023-04-03T18:16:22;20.13;;;16.75;;
17253;SDS011;32542;52.832;13.816;2023-04-03T18:19:25;18.90;;;16.90;;
17253;SDS011;32542;52.832;13.816;2023-04-03T18:22:30;21.83;;;16.73;;
17253;SDS011;32542;52.832;13.816;2023-04-03T18:25:35;19.13;;;16.98;;
17253;SDS011;32542;52.832;13.816;2023-04-03T18:28:38;18.52;;;16.08;;
17253;SDS011;32542;52.832;13.816;2023-04-03T18:31:45;18.30;;;15.57;;
17253;SDS011;32542;52.832;13.816;2023-04-03T18:34:51;21.85;;;16.30;;
17253;SDS011;32542;52.832;13.816;2023-04-03T18:37:54;17.98;;;15.70;;
17253;SDS011;32542;52.832;13.816;2023-04-03T18:40:58;19.20;;;14.88;;